Impacts METAR Board
IDs:

KDEN - Denver Intl, CO, US

Updated at: 0000 UTC 17 Jul 2019
Potential Impact None Slight Moderate High
Time 16/12Z 16/13Z 16/14Z 16/15Z 16/16Z 16/17Z 16/18Z 16/19Z 16/20Z 16/21Z 16/22Z 16/23Z 17/00Z
Temp60 64 70 73 77 81 87 89 93 92 92 93 92
Dewpt56 56 57 57 56 54 51 49 47 41 41 40 42
Altim30.09 30.09 30.10 30.11 30.11 30.09 30.08 30.07 30.03 30.01 30.00 29.98 29.98
VIS10 10 10 10 10 10 10 10 10 10 10 10 10
CIG-- -- -- -- 220 220 -- 220 -- 220 150 150 --
CoverFEWFEWFEWSCTBKNBKNSCTBKNSCTBKNBKNBKNSCT
FltCatVFRVFRVFRVFRVFRVFRVFRVFRVFRVFRVFRVFRVFR
WX--------------------------
WDir26024034000602400609018080110
WSpd6 7 5 4 0 4 3 3 6 3 6 4 13
WGst-- -- -- -- -- -- -- -- -- -- -- -- --
Raw hourly METARs
KDEN 161153Z 26006KT 10SM FEW120 FEW160 16/13 A3009 RMK AO2 SLP118 T01560133 10194 20156 53008
KDEN 161253Z 24007KT 10SM FEW120 FEW150 18/13 A3009 RMK AO2 SLP115 T01780133
KDEN 161353Z 34005KT 10SM FEW120 FEW150 21/14 A3010 RMK AO2 SLP114 T02110139 $
KDEN 161453Z VRB04KT 10SM FEW120 SCT150 SCT220 23/14 A3011 RMK AO2 SLP118 T02280139 53005 $
KDEN 161553Z 00000KT 10SM FEW100 SCT150 BKN220 25/13 A3011 RMK AO2 SLP112 T02500133 $
KDEN 161653Z 06004KT 10SM FEW100 SCT150 BKN220 27/12 A3009 RMK AO2 SLP101 T02720122
KDEN 161755Z 24003KT 10SM FEW100 SCT150 SCT220 31/11 A3008 RMK AO2 T03060106
KDEN 161853Z VRB03KT 10SM FEW100 SCT150 BKN220 32/09 A3007 RMK AO2 SLP095 T03170094
KDEN 161953Z 06006KT 10SM SCT100 SCT150 SCT220 34/08 A3003 RMK AO2 SLP076 T03390083 $
KDEN 162053Z 09003KT 10SM SCT100 SCT150 BKN220 33/05 A3001 RMK AO2 SLP069 T03330050 58022 $
KDEN 162153Z 18006KT 10SM FEW060 SCT110 BKN150 BKN220 33/05 A3000 RMK AO2 PK WND 33036/2133 RAB26E40B41E53 SLP068 P0000 T03330050 $
KDEN 162253Z 08004KT 10SM FEW110 BKN150 BKN220 34/04 A2998 RMK AO2 LTG DSNT W SLP061 VIRGA DSNT W T03390044 $
KDEN 162353Z 11013KT 10SM FEW110 FEW150 SCT220 33/06 A2998 RMK AO2 SLP063 60000 T03330056 10356 20294 58009 $



Page loaded:  00:22 UTC  |   05:22 PM Pacific  |   06:22 PM Mountain  |   07:22 PM Central  |   08:22 PM Eastern

 

ADVISORIES

FORECASTS

FORECASTS

OBSERVATIONS

USER TOOLS

ABOUT US